Kerby Knob, Kentucky
Current Conditions -  °F | °C
As of 9:55 AM on Monday 24 Nov 2014 (Local Time) from KI39 Reporting Station
Scattered Clouds Scattered Clouds  
Wind Chill: 63°   Ceiling: Unl
Heat Index: 63°   Visibility: 10mi
Dew Point: 46°   Wind: 26mph
Humidity: 55%   Direction: 220°SW
Pressure: 29.53"   Gusts: 45mph
Location:  37.4446°N, 84.0227°W
Report Text: KI39 241455Z AUTO 22023G39KT 10SM SCT040 SCT048 SCT065 17/08 A2953 RMK AO2
Loading
Personal Weather Stations






























Interactive Weather Map New forecast layout! Learn more

10-Day Weather Forecast

Advertisements
Track Severe Weather on mobile